sensor_id;sensor_type;location;lat;lon;timestamp;P1;durP1;ratioP1;P2;durP2;ratioP2
34212;SDS011;20477;51.390;8.102;2023-04-25T00:00:24;33.83;;;10.07;;
34212;SDS011;20477;51.390;8.102;2023-04-25T00:02:52;23.73;;;8.85;;
34212;SDS011;20477;51.390;8.102;2023-04-25T00:05:22;26.75;;;9.20;;
34212;SDS011;20477;51.390;8.102;2023-04-25T00:07:50;23.55;;;10.13;;
34212;SDS011;20477;51.390;8.102;2023-04-25T00:10:19;25.17;;;9.88;;
34212;SDS011;20477;51.390;8.102;2023-04-25T00:12:47;28.27;;;9.88;;
34212;SDS011;20477;51.390;8.102;2023-04-25T00:15:16;21.90;;;8.90;;
34212;SDS011;20477;51.390;8.102;2023-04-25T00:17:45;24.38;;;9.52;;
34212;SDS011;20477;51.390;8.102;2023-04-25T00:20:13;25.08;;;10.18;;
34212;SDS011;20477;51.390;8.102;2023-04-25T00:22:41;26.40;;;8.95;;
34212;SDS011;20477;51.390;8.102;2023-04-25T00:25:09;28.60;;;9.48;;
34212;SDS011;20477;51.390;8.102;2023-04-25T00:27:37;27.00;;;9.20;;
34212;SDS011;20477;51.390;8.102;2023-04-25T00:30:08;23.40;;;9.75;;
34212;SDS011;20477;51.390;8.102;2023-04-25T00:32:38;30.80;;;9.13;;
34212;SDS011;20477;51.390;8.102;2023-04-25T00:35:06;20.42;;;7.65;;
34212;SDS011;20477;51.390;8.102;2023-04-25T00:37:34;28.67;;;8.82;;
34212;SDS011;20477;51.390;8.102;2023-04-25T00:40:04;30.05;;;9.05;;
34212;SDS011;20477;51.390;8.102;2023-04-25T00:42:34;25.25;;;8.70;;
34212;SDS011;20477;51.390;8.102;2023-04-25T00:45:04;31.90;;;9.02;;
34212;SDS011;20477;51.390;8.102;2023-04-25T00:47:34;26.48;;;8.77;;
34212;SDS011;20477;51.390;8.102;2023-04-25T00:50:06;25.83;;;7.97;;
34212;SDS011;20477;51.390;8.102;2023-04-25T00:52:34;30.30;;;7.88;;
34212;SDS011;20477;51.390;8.102;2023-04-25T00:55:03;24.13;;;8.50;;
34212;SDS011;20477;51.390;8.102;2023-04-25T00:57:32;28.33;;;8.38;;
34212;SDS011;20477;51.390;8.102;2023-04-25T01:00:01;19.05;;;7.05;;
34212;SDS011;20477;51.390;8.102;2023-04-25T01:02:31;22.10;;;7.95;;
34212;SDS011;20477;51.390;8.102;2023-04-25T01:05:00;21.23;;;8.20;;
34212;SDS011;20477;51.390;8.102;2023-04-25T01:07:29;19.70;;;7.28;;
34212;SDS011;20477;51.390;8.102;2023-04-25T01:09:57;31.30;;;7.10;;
34212;SDS011;20477;51.390;8.102;2023-04-25T01:12:25;26.33;;;6.80;;
34212;SDS011;20477;51.390;8.102;2023-04-25T01:14:53;18.67;;;6.30;;
34212;SDS011;20477;51.390;8.102;2023-04-25T01:17:21;14.75;;;5.95;;
34212;SDS011;20477;51.390;8.102;2023-04-25T01:19:50;19.80;;;6.65;;
34212;SDS011;20477;51.390;8.102;2023-04-25T01:22:19;22.17;;;6.55;;
34212;SDS011;20477;51.390;8.102;2023-04-25T01:24:48;18.58;;;6.20;;
34212;SDS011;20477;51.390;8.102;2023-04-25T01:27:16;22.38;;;5.97;;
34212;SDS011;20477;51.390;8.102;2023-04-25T01:29:44;18.70;;;5.82;;
34212;SDS011;20477;51.390;8.102;2023-04-25T01:32:12;18.70;;;7.72;;
34212;SDS011;20477;51.390;8.102;2023-04-25T01:34:41;21.50;;;6.85;;
34212;SDS011;20477;51.390;8.102;2023-04-25T01:37:09;22.95;;;6.03;;
34212;SDS011;20477;51.390;8.102;2023-04-25T01:39:38;18.80;;;6.85;;
34212;SDS011;20477;51.390;8.102;2023-04-25T01:42:06;22.58;;;6.97;;
34212;SDS011;20477;51.390;8.102;2023-04-25T01:44:34;22.80;;;7.93;;
34212;SDS011;20477;51.390;8.102;2023-04-25T01:47:02;21.65;;;6.57;;
34212;SDS011;20477;51.390;8.102;2023-04-25T01:49:31;16.40;;;6.93;;
34212;SDS011;20477;51.390;8.102;2023-04-25T01:51:59;23.48;;;7.60;;
34212;SDS011;20477;51.390;8.102;2023-04-25T01:54:27;20.48;;;8.55;;
34212;SDS011;20477;51.390;8.102;2023-04-25T01:56:57;22.25;;;8.38;;
34212;SDS011;20477;51.390;8.102;2023-04-25T01:59:26;18.05;;;8.98;;
34212;SDS011;20477;51.390;8.102;2023-04-25T02:01:54;24.48;;;10.10;;
34212;SDS011;20477;51.390;8.102;2023-04-25T02:04:22;22.00;;;9.15;;
34212;SDS011;20477;51.390;8.102;2023-04-25T02:06:50;25.33;;;10.93;;
34212;SDS011;20477;51.390;8.102;2023-04-25T02:09:18;22.55;;;10.60;;
34212;SDS011;20477;51.390;8.102;2023-04-25T02:11:46;24.50;;;10.60;;
34212;SDS011;20477;51.390;8.102;2023-04-25T02:14:15;39.22;;;10.50;;
34212;SDS011;20477;51.390;8.102;2023-04-25T02:16:43;18.15;;;9.98;;
34212;SDS011;20477;51.390;8.102;2023-04-25T02:19:12;20.00;;;10.45;;
34212;SDS011;20477;51.390;8.102;2023-04-25T02:21:40;30.05;;;12.40;;
34212;SDS011;20477;51.390;8.102;2023-04-25T02:24:08;20.02;;;10.77;;
34212;SDS011;20477;51.390;8.102;2023-04-25T02:26:36;26.77;;;10.80;;
34212;SDS011;20477;51.390;8.102;2023-04-25T02:29:04;21.75;;;11.95;;
34212;SDS011;20477;51.390;8.102;2023-04-25T02:31:34;32.75;;;12.60;;
34212;SDS011;20477;51.390;8.102;2023-04-25T02:34:02;22.02;;;11.13;;
34212;SDS011;20477;51.390;8.102;2023-04-25T02:36:30;23.15;;;10.95;;
34212;SDS011;20477;51.390;8.102;2023-04-25T02:39:00;23.90;;;13.73;;
34212;SDS011;20477;51.390;8.102;2023-04-25T02:41:29;28.70;;;13.85;;
34212;SDS011;20477;51.390;8.102;2023-04-25T02:43:58;29.35;;;14.02;;
34212;SDS011;20477;51.390;8.102;2023-04-25T02:46:26;27.40;;;13.60;;
34212;SDS011;20477;51.390;8.102;2023-04-25T02:49:06;28.90;;;13.13;;
34212;SDS011;20477;51.390;8.102;2023-04-25T02:51:34;30.70;;;13.43;;
34212;SDS011;20477;51.390;8.102;2023-04-25T02:54:02;31.52;;;14.93;;
34212;SDS011;20477;51.390;8.102;2023-04-25T02:56:30;28.00;;;13.82;;
34212;SDS011;20477;51.390;8.102;2023-04-25T02:58:58;24.35;;;13.63;;
34212;SDS011;20477;51.390;8.102;2023-04-25T03:01:26;23.45;;;12.95;;
34212;SDS011;20477;51.390;8.102;2023-04-25T03:03:56;22.33;;;13.80;;
34212;SDS011;20477;51.390;8.102;2023-04-25T03:06:25;22.65;;;13.60;;
34212;SDS011;20477;51.390;8.102;2023-04-25T03:08:53;26.45;;;12.57;;
34212;SDS011;20477;51.390;8.102;2023-04-25T03:11:21;25.95;;;13.27;;
34212;SDS011;20477;51.390;8.102;2023-04-25T03:13:49;21.13;;;12.23;;
34212;SDS011;20477;51.390;8.102;2023-04-25T03:16:18;23.17;;;11.73;;
34212;SDS011;20477;51.390;8.102;2023-04-25T03:18:46;18.92;;;9.65;;
34212;SDS011;20477;51.390;8.102;2023-04-25T03:21:15;16.77;;;10.43;;
34212;SDS011;20477;51.390;8.102;2023-04-25T03:23:45;22.48;;;10.60;;
34212;SDS011;20477;51.390;8.102;2023-04-25T03:26:13;21.63;;;12.32;;
34212;SDS011;20477;51.390;8.102;2023-04-25T03:28:41;19.90;;;10.00;;
34212;SDS011;20477;51.390;8.102;2023-04-25T03:31:09;13.18;;;8.18;;
34212;SDS011;20477;51.390;8.102;2023-04-25T03:33:37;16.00;;;9.57;;
34212;SDS011;20477;51.390;8.102;2023-04-25T03:36:06;14.75;;;8.43;;
34212;SDS011;20477;51.390;8.102;2023-04-25T03:38:34;12.25;;;8.23;;
34212;SDS011;20477;51.390;8.102;2023-04-25T03:41:04;15.50;;;9.38;;
34212;SDS011;20477;51.390;8.102;2023-04-25T03:43:32;15.48;;;8.73;;
34212;SDS011;20477;51.390;8.102;2023-04-25T03:46:00;19.25;;;10.45;;
34212;SDS011;20477;51.390;8.102;2023-04-25T03:48:28;23.20;;;12.70;;
34212;SDS011;20477;51.390;8.102;2023-04-25T03:50:56;24.42;;;11.55;;
34212;SDS011;20477;51.390;8.102;2023-04-25T03:53:25;16.75;;;9.52;;
34212;SDS011;20477;51.390;8.102;2023-04-25T03:55:53;16.92;;;11.00;;
34212;SDS011;20477;51.390;8.102;2023-04-25T03:58:22;19.27;;;11.20;;
34212;SDS011;20477;51.390;8.102;2023-04-25T04:00:51;15.15;;;10.88;;
34212;SDS011;20477;51.390;8.102;2023-04-25T04:03:19;19.00;;;11.63;;
34212;SDS011;20477;51.390;8.102;2023-04-25T04:05:47;23.45;;;12.45;;
34212;SDS011;20477;51.390;8.102;2023-04-25T04:08:16;15.02;;;9.63;;
34212;SDS011;20477;51.390;8.102;2023-04-25T04:10:44;25.65;;;12.77;;
34212;SDS011;20477;51.390;8.102;2023-04-25T04:13:12;23.73;;;11.32;;
34212;SDS011;20477;51.390;8.102;2023-04-25T04:15:42;26.63;;;12.88;;
34212;SDS011;20477;51.390;8.102;2023-04-25T04:18:10;23.60;;;12.90;;
34212;SDS011;20477;51.390;8.102;2023-04-25T04:20:38;18.63;;;10.98;;
34212;SDS011;20477;51.390;8.102;2023-04-25T04:23:06;26.58;;;12.15;;
34212;SDS011;20477;51.390;8.102;2023-04-25T04:25:34;27.38;;;10.68;;
34212;SDS011;20477;51.390;8.102;2023-04-25T04:28:03;27.67;;;10.93;;
34212;SDS011;20477;51.390;8.102;2023-04-25T04:30:32;31.50;;;9.73;;
34212;SDS011;20477;51.390;8.102;2023-04-25T04:33:03;22.98;;;10.05;;
34212;SDS011;20477;51.390;8.102;2023-04-25T04:35:32;22.55;;;8.75;;
34212;SDS011;20477;51.390;8.102;2023-04-25T04:38:00;26.50;;;7.72;;
34212;SDS011;20477;51.390;8.102;2023-04-25T04:40:28;26.27;;;8.82;;
34212;SDS011;20477;51.390;8.102;2023-04-25T04:42:57;27.58;;;7.50;;
34212;SDS011;20477;51.390;8.102;2023-04-25T04:45:25;21.38;;;8.23;;
34212;SDS011;20477;51.390;8.102;2023-04-25T04:47:54;27.45;;;9.82;;
34212;SDS011;20477;51.390;8.102;2023-04-25T04:50:24;27.83;;;9.43;;
34212;SDS011;20477;51.390;8.102;2023-04-25T04:52:52;23.77;;;9.18;;
34212;SDS011;20477;51.390;8.102;2023-04-25T04:55:21;35.35;;;10.20;;
34212;SDS011;20477;51.390;8.102;2023-04-25T04:57:49;33.80;;;11.73;;
34212;SDS011;20477;51.390;8.102;2023-04-25T05:00:17;33.95;;;12.68;;
34212;SDS011;20477;51.390;8.102;2023-04-25T05:02:47;32.78;;;12.80;;
34212;SDS011;20477;51.390;8.102;2023-04-25T05:05:15;35.88;;;12.73;;
34212;SDS011;20477;51.390;8.102;2023-04-25T05:07:44;36.90;;;14.40;;
34212;SDS011;20477;51.390;8.102;2023-04-25T05:10:12;33.53;;;14.55;;
34212;SDS011;20477;51.390;8.102;2023-04-25T05:12:41;37.22;;;14.50;;
34212;SDS011;20477;51.390;8.102;2023-04-25T05:15:09;34.67;;;15.68;;
34212;SDS011;20477;51.390;8.102;2023-04-25T05:17:38;35.78;;;15.55;;
34212;SDS011;20477;51.390;8.102;2023-04-25T05:20:06;40.15;;;16.00;;
34212;SDS011;20477;51.390;8.102;2023-04-25T05:22:35;48.70;;;18.83;;
34212;SDS011;20477;51.390;8.102;2023-04-25T05:25:05;47.25;;;18.25;;
34212;SDS011;20477;51.390;8.102;2023-04-25T05:27:34;38.75;;;17.70;;
34212;SDS011;20477;51.390;8.102;2023-04-25T05:30:02;34.90;;;18.23;;
34212;SDS011;20477;51.390;8.102;2023-04-25T05:32:32;44.10;;;18.23;;
34212;SDS011;20477;51.390;8.102;2023-04-25T05:35:00;52.63;;;16.88;;
34212;SDS011;20477;51.390;8.102;2023-04-25T05:37:29;49.40;;;17.23;;
34212;SDS011;20477;51.390;8.102;2023-04-25T05:39:59;38.30;;;16.30;;
34212;SDS011;20477;51.390;8.102;2023-04-25T05:42:28;51.10;;;18.15;;
34212;SDS011;20477;51.390;8.102;2023-04-25T05:44:56;53.72;;;19.20;;
34212;SDS011;20477;51.390;8.102;2023-04-25T05:47:24;46.58;;;19.33;;
34212;SDS011;20477;51.390;8.102;2023-04-25T05:49:52;44.92;;;17.52;;
34212;SDS011;20477;51.390;8.102;2023-04-25T05:52:20;41.15;;;18.52;;
34212;SDS011;20477;51.390;8.102;2023-04-25T05:54:48;41.70;;;16.38;;
34212;SDS011;20477;51.390;8.102;2023-04-25T05:57:20;50.05;;;16.23;;
34212;SDS011;20477;51.390;8.102;2023-04-25T05:59:50;37.63;;;15.87;;
34212;SDS011;20477;51.390;8.102;2023-04-25T06:02:19;36.10;;;15.27;;
34212;SDS011;20477;51.390;8.102;2023-04-25T06:04:49;42.58;;;14.32;;
34212;SDS011;20477;51.390;8.102;2023-04-25T06:07:17;43.97;;;14.82;;
34212;SDS011;20477;51.390;8.102;2023-04-25T06:09:46;36.15;;;15.73;;
34212;SDS011;20477;51.390;8.102;2023-04-25T06:12:14;37.42;;;13.77;;
34212;SDS011;20477;51.390;8.102;2023-04-25T06:14:42;41.78;;;15.40;;
34212;SDS011;20477;51.390;8.102;2023-04-25T06:17:11;43.88;;;14.55;;
34212;SDS011;20477;51.390;8.102;2023-04-25T06:19:39;36.03;;;13.32;;
34212;SDS011;20477;51.390;8.102;2023-04-25T06:22:08;40.30;;;14.23;;
34212;SDS011;20477;51.390;8.102;2023-04-25T06:24:37;34.75;;;14.13;;
34212;SDS011;20477;51.390;8.102;2023-04-25T06:27:05;37.55;;;12.77;;
34212;SDS011;20477;51.390;8.102;2023-04-25T06:29:33;37.60;;;12.27;;
34212;SDS011;20477;51.390;8.102;2023-04-25T06:32:01;40.05;;;13.65;;
34212;SDS011;20477;51.390;8.102;2023-04-25T06:34:30;22.15;;;10.68;;
34212;SDS011;20477;51.390;8.102;2023-04-25T06:36:58;35.40;;;11.02;;
34212;SDS011;20477;51.390;8.102;2023-04-25T06:39:26;30.35;;;10.98;;
34212;SDS011;20477;51.390;8.102;2023-04-25T06:41:54;35.58;;;11.25;;
34212;SDS011;20477;51.390;8.102;2023-04-25T06:44:22;30.83;;;10.77;;
34212;SDS011;20477;51.390;8.102;2023-04-25T06:46:52;29.00;;;10.38;;
34212;SDS011;20477;51.390;8.102;2023-04-25T06:49:20;30.90;;;10.77;;
34212;SDS011;20477;51.390;8.102;2023-04-25T06:51:50;37.08;;;11.18;;
34212;SDS011;20477;51.390;8.102;2023-04-25T06:54:18;35.90;;;11.02;;
34212;SDS011;20477;51.390;8.102;2023-04-25T06:56:46;23.77;;;10.10;;
34212;SDS011;20477;51.390;8.102;2023-04-25T06:59:15;23.55;;;9.57;;
34212;SDS011;20477;51.390;8.102;2023-04-25T07:01:43;32.10;;;8.50;;
34212;SDS011;20477;51.390;8.102;2023-04-25T07:04:12;40.15;;;9.50;;
34212;SDS011;20477;51.390;8.102;2023-04-25T07:06:40;26.27;;;9.07;;
34212;SDS011;20477;51.390;8.102;2023-04-25T07:09:10;23.15;;;9.68;;
34212;SDS011;20477;51.390;8.102;2023-04-25T07:11:39;27.45;;;9.18;;
34212;SDS011;20477;51.390;8.102;2023-04-25T07:14:07;20.75;;;9.02;;
34212;SDS011;20477;51.390;8.102;2023-04-25T07:16:35;31.85;;;9.77;;
34212;SDS011;20477;51.390;8.102;2023-04-25T07:19:03;39.13;;;10.25;;
34212;SDS011;20477;51.390;8.102;2023-04-25T07:21:31;48.50;;;10.55;;
34212;SDS011;20477;51.390;8.102;2023-04-25T07:24:00;29.60;;;9.50;;
34212;SDS011;20477;51.390;8.102;2023-04-25T07:26:29;32.17;;;9.18;;
34212;SDS011;20477;51.390;8.102;2023-04-25T07:28:57;27.48;;;9.15;;
34212;SDS011;20477;51.390;8.102;2023-04-25T07:31:26;31.25;;;9.77;;
34212;SDS011;20477;51.390;8.102;2023-04-25T07:33:54;30.70;;;8.85;;
34212;SDS011;20477;51.390;8.102;2023-04-25T07:36:24;25.02;;;8.27;;
34212;SDS011;20477;51.390;8.102;2023-04-25T07:38:52;23.48;;;8.70;;
34212;SDS011;20477;51.390;8.102;2023-04-25T07:41:20;23.77;;;7.85;;
34212;SDS011;20477;51.390;8.102;2023-04-25T07:43:50;25.13;;;7.70;;
34212;SDS011;20477;51.390;8.102;2023-04-25T07:46:18;23.17;;;7.13;;
34212;SDS011;20477;51.390;8.102;2023-04-25T07:48:46;26.63;;;7.90;;
34212;SDS011;20477;51.390;8.102;2023-04-25T07:51:15;33.13;;;7.07;;
34212;SDS011;20477;51.390;8.102;2023-04-25T07:53:43;24.02;;;7.38;;
34212;SDS011;20477;51.390;8.102;2023-04-25T07:56:11;21.35;;;7.22;;
34212;SDS011;20477;51.390;8.102;2023-04-25T07:58:39;16.55;;;5.45;;
34212;SDS011;20477;51.390;8.102;2023-04-25T08:01:08;16.98;;;6.22;;
34212;SDS011;20477;51.390;8.102;2023-04-25T08:03:36;22.58;;;6.95;;
34212;SDS011;20477;51.390;8.102;2023-04-25T08:06:05;27.27;;;6.68;;
34212;SDS011;20477;51.390;8.102;2023-04-25T08:08:34;28.00;;;5.40;;
34212;SDS011;20477;51.390;8.102;2023-04-25T08:11:02;25.52;;;5.55;;
34212;SDS011;20477;51.390;8.102;2023-04-25T08:13:30;20.85;;;5.82;;
34212;SDS011;20477;51.390;8.102;2023-04-25T08:15:58;26.02;;;5.75;;
34212;SDS011;20477;51.390;8.102;2023-04-25T08:18:27;22.50;;;6.88;;
34212;SDS011;20477;51.390;8.102;2023-04-25T08:20:56;20.90;;;5.10;;
34212;SDS011;20477;51.390;8.102;2023-04-25T08:23:24;21.90;;;5.43;;
34212;SDS011;20477;51.390;8.102;2023-04-25T08:25:52;22.08;;;6.53;;
34212;SDS011;20477;51.390;8.102;2023-04-25T08:28:20;18.63;;;4.63;;
34212;SDS011;20477;51.390;8.102;2023-04-25T08:30:48;15.43;;;4.05;;
34212;SDS011;20477;51.390;8.102;2023-04-25T08:33:16;21.70;;;5.55;;
34212;SDS011;20477;51.390;8.102;2023-04-25T08:35:45;18.40;;;5.30;;
34212;SDS011;20477;51.390;8.102;2023-04-25T08:38:13;18.17;;;4.18;;
34212;SDS011;20477;51.390;8.102;2023-04-25T08:40:41;25.85;;;4.78;;
34212;SDS011;20477;51.390;8.102;2023-04-25T08:43:12;18.60;;;3.58;;
34212;SDS011;20477;51.390;8.102;2023-04-25T08:45:41;28.30;;;5.22;;
34212;SDS011;20477;51.390;8.102;2023-04-25T08:48:11;20.38;;;5.28;;
34212;SDS011;20477;51.390;8.102;2023-04-25T08:50:40;12.20;;;3.53;;
34212;SDS011;20477;51.390;8.102;2023-04-25T08:53:20;29.83;;;6.43;;
34212;SDS011;20477;51.390;8.102;2023-04-25T08:55:51;24.25;;;4.65;;
34212;SDS011;20477;51.390;8.102;2023-04-25T08:58:20;26.60;;;5.10;;
34212;SDS011;20477;51.390;8.102;2023-04-25T09:00:48;22.42;;;3.60;;
34212;SDS011;20477;51.390;8.102;2023-04-25T09:03:18;19.08;;;3.92;;
34212;SDS011;20477;51.390;8.102;2023-04-25T09:05:48;20.45;;;4.50;;
34212;SDS011;20477;51.390;8.102;2023-04-25T09:08:17;14.40;;;3.25;;
34212;SDS011;20477;51.390;8.102;2023-04-25T09:10:45;18.83;;;4.03;;
34212;SDS011;20477;51.390;8.102;2023-04-25T09:13:14;22.15;;;4.80;;
34212;SDS011;20477;51.390;8.102;2023-04-25T09:15:49;13.43;;;3.90;;
34212;SDS011;20477;51.390;8.102;2023-04-25T09:18:22;19.35;;;4.13;;
34212;SDS011;20477;51.390;8.102;2023-04-25T09:20:57;14.70;;;3.20;;
34212;SDS011;20477;51.390;8.102;2023-04-25T09:23:39;18.42;;;3.13;;
34212;SDS011;20477;51.390;8.102;2023-04-25T09:26:08;17.63;;;3.92;;
34212;SDS011;20477;51.390;8.102;2023-04-25T09:28:36;14.25;;;3.97;;
34212;SDS011;20477;51.390;8.102;2023-04-25T09:31:04;14.45;;;3.45;;
34212;SDS011;20477;51.390;8.102;2023-04-25T09:33:33;21.55;;;5.22;;
34212;SDS011;20477;51.390;8.102;2023-04-25T09:36:04;19.33;;;4.15;;
34212;SDS011;20477;51.390;8.102;2023-04-25T09:38:39;20.27;;;4.07;;
34212;SDS011;20477;51.390;8.102;2023-04-25T09:41:08;17.50;;;3.67;;
34212;SDS011;20477;51.390;8.102;2023-04-25T09:43:37;15.80;;;3.72;;
34212;SDS011;20477;51.390;8.102;2023-04-25T09:46:07;16.80;;;4.03;;
34212;SDS011;20477;51.390;8.102;2023-04-25T09:48:37;24.30;;;4.07;;
34212;SDS011;20477;51.390;8.102;2023-04-25T09:51:08;21.25;;;4.15;;
34212;SDS011;20477;51.390;8.102;2023-04-25T09:53:37;23.08;;;5.30;;
34212;SDS011;20477;51.390;8.102;2023-04-25T09:56:06;16.20;;;5.15;;
34212;SDS011;20477;51.390;8.102;2023-04-25T09:58:35;20.52;;;4.82;;
34212;SDS011;20477;51.390;8.102;2023-04-25T10:01:04;18.35;;;5.28;;
34212;SDS011;20477;51.390;8.102;2023-04-25T10:03:34;18.17;;;5.43;;
34212;SDS011;20477;51.390;8.102;2023-04-25T10:06:08;17.90;;;4.75;;
34212;SDS011;20477;51.390;8.102;2023-04-25T10:08:39;16.63;;;5.13;;
34212;SDS011;20477;51.390;8.102;2023-04-25T10:11:08;15.77;;;3.92;;
34212;SDS011;20477;51.390;8.102;2023-04-25T10:13:36;9.27;;;4.30;;
34212;SDS011;20477;51.390;8.102;2023-04-25T10:16:04;16.00;;;3.58;;
34212;SDS011;20477;51.390;8.102;2023-04-25T10:18:32;16.52;;;3.67;;
34212;SDS011;20477;51.390;8.102;2023-04-25T10:21:01;18.20;;;4.68;;
34212;SDS011;20477;51.390;8.102;2023-04-25T10:23:32;15.68;;;4.53;;
34212;SDS011;20477;51.390;8.102;2023-04-25T10:26:01;14.70;;;3.70;;
34212;SDS011;20477;51.390;8.102;2023-04-25T10:28:29;13.43;;;3.75;;
34212;SDS011;20477;51.390;8.102;2023-04-25T10:31:23;16.83;;;3.97;;
34212;SDS011;20477;51.390;8.102;2023-04-25T10:33:52;17.45;;;4.03;;
34212;SDS011;20477;51.390;8.102;2023-04-25T10:36:21;13.80;;;3.90;;
34212;SDS011;20477;51.390;8.102;2023-04-25T10:38:51;15.05;;;3.00;;
34212;SDS011;20477;51.390;8.102;2023-04-25T10:41:20;15.50;;;3.05;;
34212;SDS011;20477;51.390;8.102;2023-04-25T10:43:49;17.73;;;3.25;;
34212;SDS011;20477;51.390;8.102;2023-04-25T10:46:27;13.15;;;3.58;;
34212;SDS011;20477;51.390;8.102;2023-04-25T10:48:58;15.60;;;3.35;;
34212;SDS011;20477;51.390;8.102;2023-04-25T10:51:27;15.35;;;3.67;;
34212;SDS011;20477;51.390;8.102;2023-04-25T10:54:17;14.57;;;2.92;;
34212;SDS011;20477;51.390;8.102;2023-04-25T10:56:48;11.23;;;2.78;;
34212;SDS011;20477;51.390;8.102;2023-04-25T10:59:17;14.15;;;3.33;;
34212;SDS011;20477;51.390;8.102;2023-04-25T11:01:46;18.88;;;4.18;;
34212;SDS011;20477;51.390;8.102;2023-04-25T11:04:21;19.05;;;3.78;;
34212;SDS011;20477;51.390;8.102;2023-04-25T11:06:55;10.00;;;3.13;;
34212;SDS011;20477;51.390;8.102;2023-04-25T11:09:34;14.65;;;3.70;;
34212;SDS011;20477;51.390;8.102;2023-04-25T11:12:03;11.55;;;2.75;;
34212;SDS011;20477;51.390;8.102;2023-04-25T11:14:31;11.02;;;2.92;;
34212;SDS011;20477;51.390;8.102;2023-04-25T11:16:59;10.55;;;2.63;;
34212;SDS011;20477;51.390;8.102;2023-04-25T11:19:28;11.35;;;3.00;;
34212;SDS011;20477;51.390;8.102;2023-04-25T11:21:56;12.20;;;3.28;;
34212;SDS011;20477;51.390;8.102;2023-04-25T11:24:26;8.35;;;3.42;;
34212;SDS011;20477;51.390;8.102;2023-04-25T11:26:56;12.13;;;3.03;;
34212;SDS011;20477;51.390;8.102;2023-04-25T11:29:26;9.13;;;3.03;;
34212;SDS011;20477;51.390;8.102;2023-04-25T11:31:54;9.43;;;2.65;;
34212;SDS011;20477;51.390;8.102;2023-04-25T11:34:24;7.70;;;2.90;;
34212;SDS011;20477;51.390;8.102;2023-04-25T11:36:53;11.57;;;3.00;;
34212;SDS011;20477;51.390;8.102;2023-04-25T11:39:21;10.70;;;2.78;;
34212;SDS011;20477;51.390;8.102;2023-04-25T11:41:49;10.68;;;2.65;;
34212;SDS011;20477;51.390;8.102;2023-04-25T11:44:19;18.00;;;2.72;;
34212;SDS011;20477;51.390;8.102;2023-04-25T11:46:47;11.10;;;2.58;;
34212;SDS011;20477;51.390;8.102;2023-04-25T11:49:16;10.25;;;2.70;;
34212;SDS011;20477;51.390;8.102;2023-04-25T11:51:46;9.82;;;3.05;;
34212;SDS011;20477;51.390;8.102;2023-04-25T11:54:14;8.57;;;2.80;;
34212;SDS011;20477;51.390;8.102;2023-04-25T11:56:43;18.98;;;3.92;;
34212;SDS011;20477;51.390;8.102;2023-04-25T11:59:12;10.18;;;2.42;;
34212;SDS011;20477;51.390;8.102;2023-04-25T12:01:48;11.80;;;3.33;;
34212;SDS011;20477;51.390;8.102;2023-04-25T12:04:17;12.00;;;3.10;;
34212;SDS011;20477;51.390;8.102;2023-04-25T12:06:47;9.77;;;2.60;;
34212;SDS011;20477;51.390;8.102;2023-04-25T12:09:17;10.35;;;2.72;;
34212;SDS011;20477;51.390;8.102;2023-04-25T12:11:48;9.55;;;2.22;;
34212;SDS011;20477;51.390;8.102;2023-04-25T12:14:23;10.43;;;3.03;;
34212;SDS011;20477;51.390;8.102;2023-04-25T12:16:54;11.63;;;2.13;;
34212;SDS011;20477;51.390;8.102;2023-04-25T12:19:23;12.13;;;2.70;;
34212;SDS011;20477;51.390;8.102;2023-04-25T12:21:52;13.63;;;3.22;;
34212;SDS011;20477;51.390;8.102;2023-04-25T12:24:25;10.37;;;2.50;;
34212;SDS011;20477;51.390;8.102;2023-04-25T12:26:58;12.57;;;3.05;;
34212;SDS011;20477;51.390;8.102;2023-04-25T12:29:28;16.95;;;2.92;;
34212;SDS011;20477;51.390;8.102;2023-04-25T12:32:09;14.02;;;3.22;;
34212;SDS011;20477;51.390;8.102;2023-04-25T12:34:37;11.95;;;3.15;;
34212;SDS011;20477;51.390;8.102;2023-04-25T12:37:05;10.98;;;2.75;;
34212;SDS011;20477;51.390;8.102;2023-04-25T12:39:33;13.20;;;2.80;;
34212;SDS011;20477;51.390;8.102;2023-04-25T12:42:01;12.82;;;3.47;;
34212;SDS011;20477;51.390;8.102;2023-04-25T12:44:33;12.73;;;4.45;;
34212;SDS011;20477;51.390;8.102;2023-04-25T12:47:01;14.55;;;2.97;;
34212;SDS011;20477;51.390;8.102;2023-04-25T12:49:30;6.18;;;2.10;;
34212;SDS011;20477;51.390;8.102;2023-04-25T12:51:59;11.75;;;2.90;;
34212;SDS011;20477;51.390;8.102;2023-04-25T12:54:27;10.48;;;2.65;;
34212;SDS011;20477;51.390;8.102;2023-04-25T12:56:55;8.10;;;2.22;;
34212;SDS011;20477;51.390;8.102;2023-04-25T12:59:23;9.20;;;1.60;;
34212;SDS011;20477;51.390;8.102;2023-04-25T13:01:51;3.40;;;1.60;;
34212;SDS011;20477;51.390;8.102;2023-04-25T13:04:19;7.60;;;2.08;;
34212;SDS011;20477;51.390;8.102;2023-04-25T13:06:49;5.93;;;1.63;;
34212;SDS011;20477;51.390;8.102;2023-04-25T13:09:17;7.40;;;1.50;;
34212;SDS011;20477;51.390;8.102;2023-04-25T13:11:45;4.72;;;1.75;;
34212;SDS011;20477;51.390;8.102;2023-04-25T13:14:13;4.78;;;2.22;;
34212;SDS011;20477;51.390;8.102;2023-04-25T13:16:41;7.00;;;2.08;;
34212;SDS011;20477;51.390;8.102;2023-04-25T13:19:09;8.23;;;1.83;;
34212;SDS011;20477;51.390;8.102;2023-04-25T13:21:39;8.48;;;1.77;;
34212;SDS011;20477;51.390;8.102;2023-04-25T13:24:10;9.38;;;2.20;;
34212;SDS011;20477;51.390;8.102;2023-04-25T13:26:38;6.22;;;1.77;;
34212;SDS011;20477;51.390;8.102;2023-04-25T13:29:06;7.10;;;1.50;;
34212;SDS011;20477;51.390;8.102;2023-04-25T13:31:34;10.27;;;3.22;;
34212;SDS011;20477;51.390;8.102;2023-04-25T13:34:02;4.75;;;1.50;;
34212;SDS011;20477;51.390;8.102;2023-04-25T13:36:30;6.55;;;1.85;;
34212;SDS011;20477;51.390;8.102;2023-04-25T13:38:59;4.05;;;1.63;;
34212;SDS011;20477;51.390;8.102;2023-04-25T13:41:28;8.40;;;2.20;;
34212;SDS011;20477;51.390;8.102;2023-04-25T13:43:57;6.63;;;2.10;;
34212;SDS011;20477;51.390;8.102;2023-04-25T13:46:25;6.75;;;1.80;;
34212;SDS011;20477;51.390;8.102;2023-04-25T13:49:10;10.65;;;2.75;;
34212;SDS011;20477;51.390;8.102;2023-04-25T13:51:39;4.55;;;1.63;;
34212;SDS011;20477;51.390;8.102;2023-04-25T13:54:08;8.30;;;2.00;;
34212;SDS011;20477;51.390;8.102;2023-04-25T13:56:38;6.75;;;1.92;;
34212;SDS011;20477;51.390;8.102;2023-04-25T13:59:08;7.95;;;2.40;;
34212;SDS011;20477;51.390;8.102;2023-04-25T14:01:37;6.47;;;1.70;;
34212;SDS011;20477;51.390;8.102;2023-04-25T14:04:05;13.70;;;2.72;;
34212;SDS011;20477;51.390;8.102;2023-04-25T14:06:33;7.78;;;2.15;;
34212;SDS011;20477;51.390;8.102;2023-04-25T14:09:02;4.65;;;1.90;;
34212;SDS011;20477;51.390;8.102;2023-04-25T14:11:31;8.23;;;2.50;;
34212;SDS011;20477;51.390;8.102;2023-04-25T14:14:00;8.52;;;2.05;;
34212;SDS011;20477;51.390;8.102;2023-04-25T14:16:29;7.78;;;2.13;;
34212;SDS011;20477;51.390;8.102;2023-04-25T14:18:57;9.57;;;2.22;;
34212;SDS011;20477;51.390;8.102;2023-04-25T14:21:26;9.55;;;2.38;;
34212;SDS011;20477;51.390;8.102;2023-04-25T14:23:55;5.93;;;1.50;;
34212;SDS011;20477;51.390;8.102;2023-04-25T14:26:23;4.78;;;1.25;;
34212;SDS011;20477;51.390;8.102;2023-04-25T14:28:52;5.45;;;1.58;;
34212;SDS011;20477;51.390;8.102;2023-04-25T14:31:21;8.07;;;1.60;;
34212;SDS011;20477;51.390;8.102;2023-04-25T14:33:49;8.02;;;1.60;;
34212;SDS011;20477;51.390;8.102;2023-04-25T14:36:18;7.07;;;1.50;;
34212;SDS011;20477;51.390;8.102;2023-04-25T14:38:46;5.55;;;1.60;;
34212;SDS011;20477;51.390;8.102;2023-04-25T14:41:14;7.90;;;1.35;;
34212;SDS011;20477;51.390;8.102;2023-04-25T14:43:42;6.07;;;1.48;;